createdAt,value
2017-06-17T00:01:11.946Z,63.82
2017-06-17T00:03:38.682Z,63.78
2017-06-17T00:06:05.479Z,64.05
2017-06-17T00:08:32.239Z,63.85
2017-06-17T00:11:07.047Z,63.80
2017-06-17T00:13:33.849Z,64.25
2017-06-17T00:16:00.598Z,64.26
2017-06-17T00:18:27.400Z,64.46
2017-06-17T00:20:54.165Z,64.42
2017-06-17T00:23:20.902Z,64.41
2017-06-17T00:25:47.659Z,64.81
2017-06-17T00:28:14.377Z,64.49
2017-06-17T00:30:41.195Z,64.94
2017-06-17T00:33:07.947Z,65.40
2017-06-17T00:35:34.699Z,66.26
2017-06-17T00:38:01.555Z,65.73
2017-06-17T00:40:28.299Z,65.48
2017-06-17T00:42:55.090Z,66.06
2017-06-17T00:45:21.813Z,65.91
2017-06-17T00:47:48.568Z,65.96
2017-06-17T00:50:15.329Z,66.32
2017-06-17T00:52:44.362Z,65.83
2017-06-17T00:55:12.771Z,66.06
2017-06-17T00:57:39.498Z,66.50
2017-06-17T01:00:06.268Z,66.07
2017-06-17T01:02:32.994Z,65.73
2017-06-17T01:04:59.735Z,66.60
2017-06-17T01:07:26.529Z,66.59
2017-06-17T01:09:53.300Z,66.25
2017-06-17T01:12:20.032Z,66.01
2017-06-17T01:14:46.832Z,66.48
2017-06-17T01:17:13.580Z,65.89
2017-06-17T01:19:40.413Z,66.03
2017-06-17T01:22:07.134Z,65.55
2017-06-17T01:24:33.921Z,65.53
2017-06-17T01:27:00.753Z,64.85
2017-06-17T01:29:27.526Z,65.30
2017-06-17T01:31:54.346Z,65.37
2017-06-17T01:34:21.093Z,65.53
2017-06-17T01:36:47.873Z,65.50
2017-06-17T01:39:14.701Z,65.22
2017-06-17T01:41:41.457Z,65.22
2017-06-17T01:44:08.243Z,65.87
2017-06-17T01:46:35.033Z,65.95
2017-06-17T01:49:01.828Z,65.63
2017-06-17T01:51:28.647Z,65.34
2017-06-17T01:53:55.442Z,65.05
2017-06-17T01:56:22.236Z,65.52
2017-06-17T01:58:49.095Z,65.83
2017-06-17T02:01:15.835Z,65.93
2017-06-17T02:03:42.644Z,65.63
2017-06-17T02:06:09.362Z,66.37
2017-06-17T02:08:36.168Z,65.83
2017-06-17T02:11:02.945Z,65.85
2017-06-17T02:13:29.701Z,65.87
2017-06-17T02:15:56.457Z,65.98
2017-06-17T02:18:23.242Z,66.41
2017-06-17T02:20:50.110Z,66.33
2017-06-17T02:23:16.893Z,66.41
2017-06-17T02:25:43.605Z,66.11
2017-06-17T02:28:10.373Z,66.36
2017-06-17T02:30:37.144Z,67.01
2017-06-17T02:33:04.014Z,66.70
2017-06-17T02:35:30.765Z,66.67
2017-06-17T02:38:04.293Z,67.17
2017-06-17T02:40:31.188Z,66.91
2017-06-17T02:42:58.002Z,67.19
2017-06-17T02:45:24.818Z,67.13
2017-06-17T02:47:51.562Z,66.69
2017-06-17T02:50:18.304Z,67.14
2017-06-17T02:52:45.067Z,66.68
2017-06-17T02:55:11.885Z,66.75
2017-06-17T02:57:38.725Z,66.57
2017-06-17T03:00:05.518Z,66.68
2017-06-17T03:02:32.278Z,66.94
2017-06-17T03:04:59.071Z,67.25
2017-06-17T03:07:25.867Z,67.42
2017-06-17T03:09:52.694Z,67.44
2017-06-17T03:12:19.448Z,67.40
2017-06-17T03:14:46.194Z,67.39
2017-06-17T03:17:12.960Z,67.30
2017-06-17T03:19:42.804Z,67.60
2017-06-17T03:22:10.671Z,67.52
2017-06-17T03:24:37.477Z,67.61
2017-06-17T03:27:04.262Z,67.25
2017-06-17T03:29:31.079Z,67.62
2017-06-17T03:31:57.848Z,67.75
2017-06-17T03:34:24.671Z,67.53
2017-06-17T03:36:51.399Z,67.41
2017-06-17T03:39:18.125Z,67.03
2017-06-17T03:41:44.891Z,67.33
2017-06-17T03:44:11.717Z,67.38
2017-06-17T03:46:38.533Z,67.89
2017-06-17T03:49:05.252Z,67.91
2017-06-17T03:51:31.962Z,67.81
2017-06-17T03:54:00.704Z,67.55
2017-06-17T03:56:28.900Z,67.24
2017-06-17T03:58:56.921Z,67.48
2017-06-17T04:01:26.711Z,66.98
2017-06-17T04:03:54.411Z,67.41
2017-06-17T04:06:24.627Z,66.72
2017-06-17T04:08:54.379Z,67.43
2017-06-17T04:11:23.831Z,67.84
2017-06-17T04:13:54.791Z,68.20
2017-06-17T04:16:25.315Z,67.93
2017-06-17T04:18:53.425Z,68.25
2017-06-17T04:21:20.219Z,68.23
2017-06-17T04:23:50.765Z,67.81
2017-06-17T04:26:19.296Z,67.83
2017-06-17T04:28:47.674Z,67.29
2017-06-17T04:31:17.250Z,67.47
2017-06-17T04:33:45.546Z,66.97
2017-06-17T04:36:15.536Z,66.49
2017-06-17T04:38:45.035Z,66.19
2017-06-17T04:41:13.389Z,65.46
2017-06-17T04:43:42.811Z,65.33
2017-06-17T04:46:13.424Z,66.09
2017-06-17T04:48:43.771Z,66.58
2017-06-17T04:51:13.752Z,66.56
2017-06-17T04:53:42.672Z,66.49
2017-06-17T04:56:12.713Z,65.87
2017-06-17T04:58:42.904Z,66.07
2017-06-17T05:01:13.725Z,66.70
2017-06-17T05:03:44.603Z,66.58
2017-06-17T05:06:12.931Z,66.78
2017-06-17T05:08:42.917Z,66.92
2017-06-17T05:11:13.413Z,66.29
2017-06-17T05:13:42.085Z,66.27
2017-06-17T05:16:11.335Z,66.59
2017-06-17T05:18:40.737Z,66.39
2017-06-17T05:21:08.522Z,66.67
2017-06-17T05:23:35.337Z,66.59
2017-06-17T05:26:04.416Z,66.97
2017-06-17T05:28:34.904Z,66.51
2017-06-17T05:31:02.902Z,66.82
2017-06-17T05:33:32.393Z,67.18
2017-06-17T05:36:01.792Z,67.18
2017-06-17T05:38:31.317Z,67.03
2017-06-17T05:40:58.117Z,67.46
2017-06-17T05:43:24.922Z,67.33
2017-06-17T05:45:51.689Z,66.63
2017-06-17T05:48:18.496Z,67.06
2017-06-17T05:50:45.242Z,66.77
2017-06-17T05:53:12.094Z,67.24
2017-06-17T05:55:38.894Z,67.64
2017-06-17T05:58:05.645Z,67.74
2017-06-17T06:00:32.442Z,67.36
2017-06-17T06:02:59.225Z,67.24
2017-06-17T06:05:35.042Z,66.23
2017-06-17T06:08:14.989Z,66.40
2017-06-17T06:10:54.809Z,65.50
2017-06-17T06:13:33.536Z,65.73
2017-06-17T06:16:03.383Z,65.48
2017-06-17T06:18:30.148Z,64.81
2017-06-17T06:20:56.875Z,64.41
2017-06-17T06:23:23.679Z,64.73
2017-06-17T06:25:50.407Z,64.88
2017-06-17T06:28:17.171Z,64.18
2017-06-17T06:30:43.917Z,63.98
2017-06-17T06:33:10.673Z,63.59
2017-06-17T06:35:37.426Z,63.21
2017-06-17T06:38:04.311Z,61.78
2017-06-17T06:40:31.077Z,62.01
2017-06-17T06:42:57.829Z,62.08
2017-06-17T06:45:24.604Z,62.35
2017-06-17T06:47:51.411Z,62.30
2017-06-17T06:50:18.120Z,63.23
2017-06-17T06:52:44.870Z,62.75
2017-06-17T06:55:11.684Z,62.85
2017-06-17T06:57:38.464Z,62.24
2017-06-17T07:00:05.273Z,62.31
2017-06-17T07:02:32.760Z,62.10
2017-06-17T07:04:59.651Z,62.25
2017-06-17T07:07:26.385Z,63.03
2017-06-17T07:09:53.165Z,62.38
2017-06-17T07:12:20.002Z,62.49
2017-06-17T07:14:46.759Z,62.28
2017-06-17T07:17:13.602Z,61.68
2017-06-17T07:19:40.380Z,62.49
2017-06-17T07:22:07.127Z,61.52
2017-06-17T07:24:33.889Z,61.49
2017-06-17T07:27:00.604Z,61.20
2017-06-17T07:29:35.705Z,60.69
2017-06-17T07:32:14.470Z,59.81
2017-06-17T07:34:46.913Z,60.82
2017-06-17T07:37:13.654Z,60.30
2017-06-17T07:39:40.412Z,60.27
2017-06-17T07:42:07.179Z,60.83
2017-06-17T07:44:33.909Z,60.40
2017-06-17T07:47:00.706Z,60.03
2017-06-17T07:49:27.470Z,59.98
2017-06-17T07:51:54.180Z,59.29
2017-06-17T07:54:20.931Z,59.74
2017-06-17T07:56:47.676Z,59.84
2017-06-17T07:59:14.465Z,60.25
2017-06-17T08:01:41.189Z,59.17
2017-06-17T08:04:07.873Z,58.06
2017-06-17T08:06:34.620Z,59.03
2017-06-17T08:09:01.350Z,60.45
2017-06-17T08:11:28.171Z,60.30
2017-06-17T08:14:03.609Z,60.71
2017-06-17T08:16:33.637Z,60.44
2017-06-17T08:19:00.332Z,60.70
2017-06-17T08:21:27.034Z,60.35
2017-06-17T08:23:53.775Z,59.98
2017-06-17T08:26:20.465Z,59.75
2017-06-17T08:31:47.763Z,58.79
2017-06-17T08:34:14.528Z,57.99
2017-06-17T08:36:41.344Z,56.99
2017-06-17T08:39:08.098Z,56.82
2017-06-17T08:41:34.830Z,57.09
2017-06-17T08:44:01.592Z,57.83
2017-06-17T08:46:28.343Z,57.66
2017-06-17T08:48:55.093Z,56.62
2017-06-17T08:51:21.872Z,56.15
2017-06-17T08:53:48.633Z,55.90
2017-06-17T08:56:15.423Z,56.44
2017-06-17T08:58:42.177Z,57.11
2017-06-17T09:01:08.971Z,57.74
2017-06-17T09:03:35.709Z,58.35
2017-06-17T09:06:02.424Z,58.38
2017-06-17T09:08:29.191Z,58.41
2017-06-17T09:10:55.913Z,58.28
2017-06-17T09:13:22.701Z,56.81
2017-06-17T09:15:49.448Z,55.45
2017-06-17T09:18:16.142Z,54.43
2017-06-17T09:20:42.877Z,54.14
2017-06-17T09:23:09.650Z,54.46
2017-06-17T09:25:36.416Z,54.06
2017-06-17T09:28:03.125Z,54.33
2017-06-17T09:30:29.874Z,54.52
2017-06-17T09:32:56.649Z,53.50
2017-06-17T09:35:23.363Z,53.18
2017-06-17T09:37:50.224Z,52.38
2017-06-17T09:40:16.953Z,52.31
2017-06-17T09:42:43.659Z,52.96
2017-06-17T09:45:10.418Z,53.48
2017-06-17T09:47:37.143Z,53.45
2017-06-17T09:50:03.961Z,54.43
2017-06-17T09:52:30.692Z,53.41
2017-06-17T09:54:57.443Z,52.11
2017-06-17T09:57:24.347Z,51.76
2017-06-17T09:59:51.114Z,51.85
2017-06-17T10:02:17.874Z,52.19
2017-06-17T10:04:44.620Z,52.00
2017-06-17T10:07:11.403Z,52.21
2017-06-17T10:09:38.193Z,51.88
2017-06-17T10:12:04.961Z,51.88
2017-06-17T10:14:31.798Z,53.23
2017-06-17T10:16:58.521Z,52.66
2017-06-17T10:19:25.233Z,51.87
2017-06-17T10:21:52.010Z,52.45
2017-06-17T10:24:18.692Z,52.47
2017-06-17T10:26:45.424Z,51.53
2017-06-17T10:29:12.226Z,51.24
2017-06-17T10:31:38.945Z,50.31
2017-06-17T10:34:05.690Z,49.51
2017-06-17T10:36:32.437Z,50.41
2017-06-17T10:38:59.188Z,51.31
2017-06-17T10:41:25.947Z,51.45
2017-06-17T10:43:52.680Z,50.03
2017-06-17T10:46:19.387Z,47.80
2017-06-17T10:48:46.114Z,47.95
2017-06-17T10:51:12.938Z,49.42
2017-06-17T10:53:39.714Z,50.57
2017-06-17T10:56:06.429Z,50.55
2017-06-17T10:58:33.125Z,50.95
2017-06-17T11:01:07.335Z,50.83
2017-06-17T11:03:36.602Z,50.71
2017-06-17T11:06:03.371Z,51.33
2017-06-17T11:08:30.102Z,50.74
2017-06-17T11:10:56.787Z,48.93
2017-06-17T11:13:23.780Z,48.13
2017-06-17T11:15:50.497Z,48.49
2017-06-17T11:18:17.265Z,48.08
2017-06-17T11:20:43.970Z,47.78
2017-06-17T11:23:10.673Z,47.57
2017-06-17T11:25:37.902Z,48.33
2017-06-17T11:28:04.629Z,48.42
2017-06-17T11:30:31.422Z,48.79
2017-06-17T11:32:58.142Z,47.58
2017-06-17T11:35:24.898Z,46.89
2017-06-17T11:37:51.685Z,46.05
2017-06-17T11:40:18.385Z,46.05
2017-06-17T11:42:45.156Z,46.45
2017-06-17T11:45:11.940Z,46.30
2017-06-17T11:47:38.681Z,46.39
2017-06-17T11:50:05.419Z,47.74
2017-06-17T11:52:32.162Z,47.35
2017-06-17T11:54:58.893Z,47.47
2017-06-17T11:57:25.596Z,46.63
2017-06-17T11:59:52.338Z,46.86
2017-06-17T12:02:19.070Z,45.81
2017-06-17T12:04:45.809Z,45.46
2017-06-17T12:07:12.621Z,45.62
2017-06-17T12:09:39.345Z,45.88
2017-06-17T12:12:06.078Z,45.42
2017-06-17T12:14:32.848Z,45.47
2017-06-17T12:16:59.552Z,44.38
2017-06-17T12:19:26.311Z,45.58
2017-06-17T12:21:53.001Z,46.45
2017-06-17T12:24:24.671Z,47.62
2017-06-17T12:26:55.209Z,47.04
2017-06-17T12:29:21.915Z,44.61
2017-06-17T12:31:48.666Z,44.88
2017-06-17T12:34:15.361Z,45.24
2017-06-17T12:36:42.083Z,45.10
2017-06-17T12:39:08.822Z,44.45
2017-06-17T12:41:35.525Z,44.47
2017-06-17T12:44:02.288Z,45.13
2017-06-17T12:46:29.025Z,45.41
2017-06-17T12:48:55.740Z,45.07
2017-06-17T12:51:22.486Z,44.28
2017-06-17T12:53:49.232Z,44.55
2017-06-17T12:56:15.993Z,43.47
2017-06-17T12:58:42.701Z,43.13
2017-06-17T13:01:09.427Z,43.71
2017-06-17T13:03:36.146Z,43.91
2017-06-17T13:06:11.803Z,44.73
2017-06-17T13:08:40.097Z,45.00
2017-06-17T13:11:06.814Z,44.40
2017-06-17T13:13:33.504Z,44.68
2017-06-17T13:16:00.272Z,43.53
2017-06-17T13:18:26.978Z,43.05
2017-06-17T13:20:53.718Z,43.55
2017-06-17T13:23:20.411Z,43.94
2017-06-17T13:25:47.169Z,45.33
2017-06-17T13:28:13.901Z,45.53
2017-06-17T13:30:40.617Z,45.41
2017-06-17T13:33:07.374Z,44.87
2017-06-17T13:35:34.090Z,43.59
2017-06-17T13:38:00.805Z,43.59
2017-06-17T13:40:27.529Z,44.52
2017-06-17T13:42:54.254Z,44.29
2017-06-17T13:45:21.036Z,45.06
2017-06-17T13:47:47.737Z,44.95
2017-06-17T13:50:14.471Z,43.36
2017-06-17T13:52:41.202Z,43.37
2017-06-17T13:55:07.954Z,43.87
2017-06-17T13:57:34.756Z,43.32
2017-06-17T14:00:01.506Z,44.28
2017-06-17T14:02:28.221Z,44.88
2017-06-17T14:04:54.949Z,45.55
2017-06-17T14:07:21.677Z,45.68
2017-06-17T14:09:48.433Z,44.13
2017-06-17T14:12:15.154Z,43.43
2017-06-17T14:14:41.881Z,44.06
2017-06-17T14:17:08.609Z,44.61
2017-06-17T14:19:35.313Z,45.42
2017-06-17T14:22:08.077Z,44.97
2017-06-17T14:24:34.780Z,44.82
2017-06-17T14:27:01.473Z,44.56
2017-06-17T14:29:28.214Z,44.73
2017-06-17T14:31:54.922Z,44.32
2017-06-17T14:34:21.637Z,44.49
2017-06-17T14:36:48.404Z,45.09
2017-06-17T14:39:15.157Z,45.22
2017-06-17T14:41:41.903Z,44.55
2017-06-17T14:44:08.697Z,44.25
2017-06-17T14:46:35.407Z,44.34
2017-06-17T14:49:02.123Z,45.11
2017-06-17T14:51:28.853Z,45.21
2017-06-17T14:53:55.644Z,45.31
2017-06-17T14:56:22.411Z,45.79
2017-06-17T14:58:49.159Z,46.45
2017-06-17T15:01:15.942Z,46.55
2017-06-17T15:03:42.639Z,45.24
2017-06-17T15:06:09.382Z,45.12
2017-06-17T15:08:36.093Z,44.63
2017-06-17T15:11:02.829Z,45.45
2017-06-17T15:13:29.565Z,44.90
2017-06-17T15:15:56.282Z,45.08
2017-06-17T15:18:23.059Z,44.54
2017-06-17T15:20:49.781Z,45.43
2017-06-17T15:23:16.505Z,44.84
2017-06-17T15:25:43.258Z,45.59
2017-06-17T15:28:09.990Z,46.11
2017-06-17T15:30:36.762Z,46.05
2017-06-17T15:33:03.477Z,46.08
2017-06-17T15:35:30.187Z,45.97
2017-06-17T15:37:56.905Z,46.77
2017-06-17T15:40:23.635Z,46.88
2017-06-17T15:42:50.376Z,46.65
2017-06-17T15:45:17.089Z,46.52
2017-06-17T15:47:43.868Z,47.06
2017-06-17T15:50:10.592Z,47.31
2017-06-17T15:52:41.115Z,47.22
2017-06-17T15:55:07.849Z,46.37
2017-06-17T15:57:34.590Z,45.61
2017-06-17T16:00:01.375Z,45.94
2017-06-17T16:02:28.162Z,45.90
2017-06-17T16:04:54.933Z,46.25
2017-06-17T16:07:21.717Z,46.32
2017-06-17T16:09:48.473Z,46.49
2017-06-17T16:12:15.295Z,46.87
2017-06-17T16:14:42.049Z,47.23
2017-06-17T16:17:08.794Z,47.88
2017-06-17T16:19:35.567Z,48.21
2017-06-17T16:22:02.329Z,48.46
2017-06-17T16:24:29.052Z,48.47
2017-06-17T16:26:55.942Z,48.29
2017-06-17T16:29:22.681Z,48.52
2017-06-17T16:31:49.437Z,48.41
2017-06-17T16:34:21.251Z,48.19
2017-06-17T16:36:47.940Z,47.58
2017-06-17T16:39:14.695Z,47.50
2017-06-17T16:41:41.413Z,48.57
2017-06-17T16:44:08.186Z,48.10
2017-06-17T16:46:35.001Z,46.85
2017-06-17T16:49:01.740Z,47.24
2017-06-17T16:51:28.513Z,47.28
2017-06-17T16:53:55.229Z,48.03
2017-06-17T16:56:21.991Z,47.74
2017-06-17T16:58:48.718Z,47.98
2017-06-17T17:01:15.469Z,47.79
2017-06-17T17:03:42.217Z,47.48
2017-06-17T17:06:08.947Z,47.43
2017-06-17T17:08:35.727Z,46.79
2017-06-17T17:11:02.431Z,47.10
2017-06-17T17:13:29.170Z,47.59
2017-06-17T17:16:01.669Z,48.12
2017-06-17T17:18:28.407Z,48.72
2017-06-17T17:20:55.121Z,49.19
2017-06-17T17:23:21.838Z,49.10
2017-06-17T17:25:48.575Z,49.11
2017-06-17T17:28:15.283Z,49.20
2017-06-17T17:30:42.033Z,48.96
2017-06-17T17:33:08.778Z,49.39
2017-06-17T17:35:35.593Z,49.80
2017-06-17T17:38:02.325Z,49.65
2017-06-17T17:40:29.059Z,49.84
2017-06-17T17:42:55.794Z,49.99
2017-06-17T17:45:22.497Z,50.43
2017-06-17T17:47:49.217Z,50.95
2017-06-17T17:50:15.976Z,51.00
2017-06-17T17:52:42.745Z,51.26
2017-06-17T17:55:09.507Z,51.90
2017-06-17T17:57:42.605Z,51.96
2017-06-17T18:00:09.409Z,52.30
2017-06-17T18:02:36.137Z,52.52
2017-06-17T18:05:02.898Z,52.67
2017-06-17T18:07:29.637Z,52.86
2017-06-17T18:09:56.441Z,53.23
2017-06-17T18:12:23.149Z,53.29
2017-06-17T18:14:49.881Z,53.56
2017-06-17T18:17:16.615Z,54.35
2017-06-17T18:19:43.350Z,54.88
2017-06-17T18:22:10.077Z,55.16
2017-06-17T18:24:36.776Z,55.03
2017-06-17T18:27:03.548Z,55.09
2017-06-17T18:29:30.248Z,55.77
2017-06-17T18:31:56.978Z,55.92
2017-06-17T18:34:23.778Z,56.49
2017-06-17T18:36:50.519Z,56.58
2017-06-17T18:39:17.286Z,56.85
2017-06-17T18:41:44.013Z,57.04
2017-06-17T18:44:10.726Z,57.21
2017-06-17T18:46:37.472Z,57.58
2017-06-17T18:49:04.196Z,57.62
2017-06-17T18:51:30.925Z,58.12
2017-06-17T18:53:57.645Z,58.48
2017-06-17T18:56:24.455Z,58.64
2017-06-17T18:58:51.204Z,58.81
2017-06-17T19:01:17.942Z,58.81
2017-06-17T19:03:44.669Z,59.01
2017-06-17T19:06:11.376Z,59.07
2017-06-17T19:08:38.131Z,59.57
2017-06-17T19:11:04.847Z,60.52
2017-06-17T19:13:31.551Z,60.86
2017-06-17T19:15:58.278Z,61.36
2017-06-17T19:18:25.105Z,61.97
2017-06-17T19:20:51.830Z,62.47
2017-06-17T19:23:18.537Z,62.74
2017-06-17T19:25:45.304Z,63.05
2017-06-17T19:28:12.069Z,63.02
2017-06-17T19:30:38.854Z,62.93
2017-06-17T19:33:05.636Z,63.81
2017-06-17T19:35:32.358Z,64.02
2017-06-17T19:37:59.109Z,64.02
2017-06-17T19:40:25.885Z,64.50
2017-06-17T19:42:55.347Z,64.21
2017-06-17T19:45:24.878Z,64.90
2017-06-17T19:47:54.788Z,65.04
2017-06-17T19:50:25.536Z,64.86
2017-06-17T19:52:53.252Z,64.97
2017-06-17T19:55:19.995Z,65.68
2017-06-17T19:57:50.119Z,65.66
2017-06-17T20:00:20.599Z,66.14
2017-06-17T20:02:50.006Z,66.31
2017-06-17T20:05:18.051Z,66.16
2017-06-17T20:07:48.339Z,66.54
2017-06-17T20:10:17.791Z,66.59
2017-06-17T20:12:45.265Z,66.75
2017-06-17T20:15:14.205Z,67.15
2017-06-17T20:17:43.068Z,67.76
2017-06-17T20:20:10.712Z,67.81
2017-06-17T20:22:52.324Z,68.08
2017-06-17T20:25:21.420Z,68.11
2017-06-17T20:27:48.178Z,67.92
2017-06-17T20:30:14.910Z,68.17
2017-06-17T20:32:41.637Z,68.48
2017-06-17T20:35:08.403Z,68.85
2017-06-17T20:37:35.146Z,69.04
2017-06-17T20:40:02.037Z,69.05
2017-06-17T20:42:28.802Z,69.42
2017-06-17T20:44:55.492Z,69.92
2017-06-17T20:47:22.206Z,69.62
2017-06-17T20:49:48.928Z,69.78
2017-06-17T20:52:15.670Z,69.57
2017-06-17T20:54:42.393Z,70.19
2017-06-17T20:57:09.128Z,70.49
2017-06-17T20:59:35.847Z,70.47
2017-06-17T21:02:02.593Z,70.99
2017-06-17T21:04:32.694Z,70.79
2017-06-17T21:07:00.993Z,70.96
2017-06-17T21:09:27.738Z,71.59
2017-06-17T21:11:54.485Z,70.92
2017-06-17T21:14:21.180Z,71.71
2017-06-17T21:16:47.930Z,72.08
2017-06-17T21:19:14.650Z,72.24
2017-06-17T21:21:41.406Z,72.54
2017-06-17T21:24:08.131Z,72.26
2017-06-17T21:26:34.888Z,72.61
2017-06-17T21:29:01.640Z,72.89
2017-06-17T21:31:28.361Z,73.10
2017-06-17T21:33:55.150Z,73.44
2017-06-17T21:36:21.901Z,73.69
2017-06-17T21:38:48.620Z,73.62
2017-06-17T21:41:15.369Z,74.20
2017-06-17T21:43:42.093Z,74.44
2017-06-17T21:46:09.447Z,74.27
2017-06-17T21:48:36.371Z,75.06
2017-06-17T21:51:03.119Z,74.53
2017-06-17T21:53:29.813Z,75.01
2017-06-17T21:55:56.530Z,75.09
2017-06-17T21:58:23.257Z,74.60
2017-06-17T22:00:49.986Z,75.40
2017-06-17T22:03:16.762Z,75.19
2017-06-17T22:05:43.473Z,75.40
2017-06-17T22:08:10.193Z,75.37
2017-06-17T22:10:36.980Z,75.50
2017-06-17T22:13:03.726Z,75.90
2017-06-17T22:15:30.461Z,75.75
2017-06-17T22:17:57.202Z,75.79
2017-06-17T22:20:23.965Z,75.45
2017-06-17T22:22:50.726Z,75.78
2017-06-17T22:25:17.466Z,76.13
2017-06-17T22:27:44.240Z,76.43
2017-06-17T22:30:10.958Z,77.00
2017-06-17T22:32:37.673Z,76.74
2017-06-17T22:35:04.461Z,77.12
2017-06-17T22:37:31.225Z,77.25
2017-06-17T22:39:57.982Z,77.41
2017-06-17T22:42:24.797Z,77.45
2017-06-17T22:44:51.553Z,77.49
2017-06-17T22:47:18.249Z,77.73
2017-06-17T22:49:44.933Z,78.07
2017-06-17T22:52:11.695Z,78.29
2017-06-17T22:54:38.410Z,78.20
2017-06-17T22:57:05.214Z,78.53
2017-06-17T22:59:31.934Z,78.11
2017-06-17T23:01:58.653Z,78.36
2017-06-17T23:04:25.560Z,78.75
2017-06-17T23:06:52.269Z,78.53
2017-06-17T23:09:28.289Z,78.84
2017-06-17T23:11:55.194Z,79.31
2017-06-17T23:14:21.963Z,78.94
2017-06-17T23:16:48.726Z,79.37
2017-06-17T23:19:15.519Z,79.57
2017-06-17T23:21:42.260Z,79.79
2017-06-17T23:24:09.010Z,79.52
2017-06-17T23:26:35.747Z,79.88
2017-06-17T23:29:02.463Z,79.68
2017-06-17T23:31:29.193Z,80.00
2017-06-17T23:33:55.950Z,79.89
2017-06-17T23:36:22.693Z,80.19
2017-06-17T23:38:49.545Z,80.55
2017-06-17T23:41:16.268Z,80.49
2017-06-17T23:43:43.015Z,80.63
2017-06-17T23:46:09.722Z,80.67
2017-06-17T23:48:36.643Z,80.51
2017-06-17T23:51:07.479Z,81.04
2017-06-17T23:53:34.800Z,81.33
2017-06-17T23:56:01.657Z,81.29
2017-06-17T23:58:28.409Z,81.15
